createdAt,value
2022-08-26T00:04:05.631Z,20.94
2022-08-26T00:06:58.504Z,20.89
2022-08-26T00:09:38.934Z,20.89
2022-08-26T00:15:43.204Z,20.90
2022-08-26T00:31:56.457Z,20.70
2022-08-26T00:35:20.510Z,20.75
2022-08-26T00:38:15.316Z,20.75
2022-08-26T00:41:08.332Z,20.67
2022-08-26T00:44:06.698Z,20.71
2022-08-26T00:51:43.274Z,20.54
2022-08-26T00:55:37.748Z,20.62
2022-08-26T01:05:38.100Z,20.51
2022-08-26T01:14:51.396Z,20.57
2022-08-26T01:21:22.538Z,20.53
2022-08-26T01:24:53.907Z,20.55
2022-08-26T01:27:56.800Z,20.50
2022-08-26T01:31:05.908Z,20.44
2022-08-26T01:34:51.412Z,20.47
2022-08-26T01:44:58.446Z,20.48
2022-08-26T01:52:39.975Z,20.54
2022-08-26T01:56:22.958Z,20.50
2022-08-26T02:03:21.487Z,20.50
2022-08-26T02:15:48.575Z,20.32
2022-08-26T02:18:30.089Z,20.32
2022-08-26T02:21:10.877Z,20.31
2022-08-26T02:24:03.051Z,20.33
2022-08-26T02:26:58.438Z,20.21
2022-08-26T02:30:17.458Z,20.18
2022-08-26T02:33:04.815Z,20.17
2022-08-26T02:36:40.183Z,20.09
2022-08-26T02:39:47.043Z,20.11
2022-08-26T02:42:31.756Z,20.17
2022-08-26T02:45:07.897Z,20.07
2022-08-26T02:48:12.397Z,20.13
2022-08-26T02:54:28.743Z,20.14
2022-08-26T03:07:27.698Z,20.05
2022-08-26T03:10:08.277Z,20.13
2022-08-26T03:13:15.979Z,20.12
2022-08-26T03:19:21.748Z,20.09
2022-08-26T03:23:30.509Z,20.22
2022-08-26T03:36:33.470Z,20.05
2022-08-26T03:40:29.972Z,20.07
2022-08-26T03:43:41.478Z,20.04
2022-08-26T03:55:09.856Z,19.98
2022-08-26T04:05:25.464Z,19.82
2022-08-26T04:25:41.614Z,19.88
2022-08-26T04:28:09.223Z,19.99
2022-08-26T04:30:39.911Z,19.92
2022-08-26T04:33:12.778Z,19.91
2022-08-26T04:35:40.078Z,19.85
2022-08-26T04:38:11.166Z,19.87
2022-08-26T04:40:39.697Z,19.92
2022-08-26T04:43:20.921Z,19.87
2022-08-26T04:45:47.977Z,19.83
2022-08-26T04:48:16.883Z,19.84
2022-08-26T04:50:43.659Z,19.86
2022-08-26T04:53:10.347Z,19.89
2022-08-26T04:55:38.471Z,19.96
2022-08-26T04:58:10.383Z,20.02
2022-08-26T05:00:40.144Z,20.13
2022-08-26T05:03:07.670Z,20.20
2022-08-26T05:05:39.848Z,20.29
2022-08-26T05:08:06.773Z,20.46
2022-08-26T05:10:36.357Z,20.56
2022-08-26T05:13:05.029Z,20.51
2022-08-26T05:15:38.086Z,20.58
2022-08-26T05:18:06.347Z,20.62
2022-08-26T05:20:39.469Z,20.63
2022-08-26T05:23:07.700Z,20.64
2022-08-26T05:25:43.099Z,20.65
2022-08-26T05:28:11.344Z,20.66
2022-08-26T05:30:40.217Z,20.72
2022-08-26T05:33:08.942Z,20.81
2022-08-26T05:35:38.318Z,20.86
2022-08-26T05:38:12.863Z,20.82
2022-08-26T05:40:43.164Z,20.86
2022-08-26T05:43:10.600Z,20.93
2022-08-26T05:45:48.987Z,20.96
2022-08-26T05:48:18.356Z,20.95
2022-08-26T05:50:50.689Z,20.99
2022-08-26T05:53:20.766Z,21.00
2022-08-26T05:55:52.017Z,21.11
2022-08-26T05:58:21.405Z,21.19
2022-08-26T06:01:05.172Z,21.23
2022-08-26T06:03:34.241Z,21.28
2022-08-26T06:06:11.706Z,21.33
2022-08-26T06:08:38.858Z,21.38
2022-08-26T06:11:08.241Z,21.44
2022-08-26T06:13:47.587Z,21.48
2022-08-26T06:16:17.404Z,21.51
2022-08-26T06:18:45.829Z,21.55
2022-08-26T06:21:12.802Z,21.66
2022-08-26T06:23:59.100Z,21.68
2022-08-26T06:26:26.056Z,21.69
2022-08-26T06:28:52.986Z,21.72
2022-08-26T06:31:19.763Z,21.79
2022-08-26T06:33:46.843Z,21.80
2022-08-26T06:36:19.486Z,21.93
2022-08-26T06:38:49.869Z,21.97
2022-08-26T06:41:18.186Z,22.03
2022-08-26T06:43:44.960Z,22.05
2022-08-26T06:46:14.058Z,22.19
2022-08-26T06:48:41.051Z,22.27
2022-08-26T06:51:18.022Z,22.33
2022-08-26T06:53:50.613Z,22.40
2022-08-26T06:56:23.044Z,22.46
2022-08-26T06:58:51.831Z,22.53
2022-08-26T07:01:24.718Z,22.64
2022-08-26T07:03:54.234Z,22.69
2022-08-26T07:06:24.073Z,22.78
2022-08-26T07:08:52.934Z,22.91
2022-08-26T07:11:20.317Z,22.89
2022-08-26T07:13:47.815Z,22.96
2022-08-26T07:16:17.597Z,23.09
2022-08-26T07:18:45.761Z,23.17
2022-08-26T07:21:14.936Z,23.27
2022-08-26T07:23:41.699Z,23.32
2022-08-26T07:26:16.441Z,23.35
2022-08-26T07:28:48.725Z,23.43
2022-08-26T07:31:16.499Z,23.48
2022-08-26T07:33:43.863Z,23.55
2022-08-26T07:36:12.197Z,23.56
2022-08-26T07:38:39.923Z,23.65
2022-08-26T07:41:08.685Z,23.77
2022-08-26T07:43:36.978Z,23.85
2022-08-26T07:46:06.501Z,23.93
2022-08-26T07:48:34.346Z,23.93
2022-08-26T07:51:02.612Z,23.96
2022-08-26T07:53:29.532Z,24.03
2022-08-26T07:55:56.355Z,24.09
2022-08-26T07:58:23.171Z,24.14
2022-08-26T08:00:49.982Z,24.23
2022-08-26T08:03:16.751Z,24.30
2022-08-26T08:05:43.558Z,24.31
2022-08-26T08:08:19.735Z,24.40
2022-08-26T08:10:55.937Z,24.50
2022-08-26T08:13:23.611Z,24.53
2022-08-26T08:15:50.954Z,24.60
2022-08-26T08:18:20.497Z,24.75
2022-08-26T08:20:54.521Z,24.80
2022-08-26T08:23:32.960Z,24.81
2022-08-26T08:26:04.775Z,24.76
2022-08-26T08:28:31.566Z,24.75
2022-08-26T08:30:59.166Z,24.78
2022-08-26T08:33:26.619Z,24.82
2022-08-26T08:35:53.488Z,24.85
2022-08-26T08:38:22.724Z,24.84
2022-08-26T08:40:51.222Z,24.93
2022-08-26T08:43:41.004Z,24.99
2022-08-26T08:46:13.091Z,25.10
2022-08-26T08:48:44.256Z,25.27
2022-08-26T08:51:20.928Z,25.34
2022-08-26T08:53:49.672Z,25.41
2022-08-26T08:56:31.476Z,25.52
2022-08-26T08:59:01.264Z,25.71
2022-08-26T09:01:54.005Z,25.81
2022-08-26T09:04:57.494Z,25.94
2022-08-26T09:07:38.207Z,26.15
2022-08-26T09:10:18.190Z,26.06
2022-08-26T09:12:47.716Z,26.02
2022-08-26T09:15:19.416Z,26.06
2022-08-26T09:18:05.870Z,26.13
2022-08-26T09:20:54.374Z,26.24
2022-08-26T09:23:21.217Z,26.34
2022-08-26T09:28:45.203Z,26.40
2022-08-26T09:31:32.848Z,26.44
2022-08-26T09:34:32.115Z,26.63
2022-08-26T09:37:00.030Z,26.75
2022-08-26T09:39:34.739Z,26.74
2022-08-26T09:42:09.485Z,26.86
2022-08-26T09:44:56.877Z,26.92
2022-08-26T09:47:38.387Z,26.97
2022-08-26T09:50:29.628Z,26.96
2022-08-26T09:53:12.866Z,26.95
2022-08-26T09:55:48.212Z,27.03
2022-08-26T09:58:33.705Z,27.00
2022-08-26T10:01:02.387Z,27.03
2022-08-26T10:03:35.741Z,27.13
2022-08-26T10:06:05.268Z,27.22
2022-08-26T10:08:36.719Z,27.18
2022-08-26T10:11:07.335Z,27.24
2022-08-26T10:13:38.059Z,27.29
2022-08-26T10:16:14.595Z,27.29
2022-08-26T10:19:15.908Z,27.32
2022-08-26T10:22:00.459Z,27.30
2022-08-26T10:24:43.272Z,27.19
2022-08-26T10:27:38.278Z,27.23
2022-08-26T10:30:18.986Z,27.30
2022-08-26T10:32:49.583Z,27.24
2022-08-26T10:35:19.313Z,27.26
2022-08-26T10:37:50.102Z,27.20
2022-08-26T10:40:29.801Z,27.18
2022-08-26T10:43:11.026Z,27.27
2022-08-26T10:45:50.474Z,27.25
2022-08-26T10:48:35.402Z,27.22
2022-08-26T10:51:04.289Z,27.22
2022-08-26T11:22:19.194Z,26.49
2022-08-26T11:28:49.985Z,26.37
2022-08-26T11:31:26.099Z,26.43
2022-08-26T11:34:03.349Z,26.44
2022-08-26T11:36:47.946Z,26.34
2022-08-26T11:39:20.912Z,26.20
2022-08-26T11:41:52.612Z,26.05
2022-08-26T11:44:26.044Z,25.92
2022-08-26T11:46:55.753Z,25.81
2022-08-26T11:49:22.760Z,25.72
2022-08-26T11:51:49.655Z,25.58
2022-08-26T11:54:30.540Z,25.49
2022-08-26T11:57:07.808Z,25.29
2022-08-26T11:59:39.520Z,25.21
2022-08-26T12:02:14.538Z,24.82
2022-08-26T12:04:42.574Z,24.47
2022-08-26T12:07:10.056Z,24.20
2022-08-26T12:09:38.497Z,23.81
2022-08-26T12:12:17.336Z,23.35
2022-08-26T12:14:44.388Z,23.01
2022-08-26T12:17:32.503Z,22.68
2022-08-26T12:20:00.656Z,22.46
2022-08-26T12:22:36.063Z,22.23
2022-08-26T12:25:06.648Z,21.98
2022-08-26T12:27:37.351Z,21.40
2022-08-26T12:30:08.558Z,20.87
2022-08-26T12:32:37.433Z,20.89
2022-08-26T12:35:24.096Z,20.95
2022-08-26T12:37:53.103Z,21.28
2022-08-26T12:40:36.100Z,21.07
2022-08-26T12:43:05.232Z,21.15
2022-08-26T12:45:56.203Z,20.60
2022-08-26T12:48:30.084Z,20.36
2022-08-26T12:50:57.481Z,20.30
2022-08-26T12:53:26.566Z,20.32
2022-08-26T12:55:56.624Z,20.37
2022-08-26T12:58:38.208Z,20.70
2022-08-26T13:01:05.120Z,20.78
2022-08-26T13:03:35.058Z,20.82
2022-08-26T13:06:20.594Z,20.79
2022-08-26T13:08:52.751Z,21.16
2022-08-26T13:11:26.124Z,21.26
2022-08-26T13:13:57.135Z,21.32
2022-08-26T13:16:25.135Z,21.50
2022-08-26T13:18:58.058Z,21.56
2022-08-26T13:21:28.604Z,21.58
2022-08-26T13:24:06.281Z,21.53
2022-08-26T13:26:33.163Z,21.53
2022-08-26T13:29:02.017Z,21.46
2022-08-26T13:31:34.659Z,21.38
2022-08-26T13:34:02.387Z,21.15
2022-08-26T13:36:29.259Z,20.73
2022-08-26T13:39:02.339Z,20.46
2022-08-26T13:41:34.915Z,20.36
2022-08-26T13:44:01.616Z,20.15
2022-08-26T13:46:28.922Z,19.95
2022-08-26T13:48:57.007Z,19.84
2022-08-26T13:51:24.860Z,19.81
2022-08-26T13:53:52.224Z,19.78
2022-08-26T13:56:19.847Z,19.92
2022-08-26T13:58:46.908Z,19.99
2022-08-26T14:01:15.901Z,20.06
2022-08-26T14:03:43.120Z,20.09
2022-08-26T14:06:10.435Z,20.09
2022-08-26T14:08:56.920Z,20.05
2022-08-26T14:11:26.413Z,19.99
2022-08-26T14:13:59.128Z,20.17
2022-08-26T14:16:28.191Z,20.15
2022-08-26T14:18:55.071Z,20.03
2022-08-26T14:21:22.257Z,19.92
2022-08-26T14:23:49.061Z,19.82
2022-08-26T14:26:27.764Z,19.76
2022-08-26T14:29:01.811Z,19.75
2022-08-26T14:31:30.182Z,19.75
2022-08-26T14:33:58.555Z,19.85
2022-08-26T14:36:28.145Z,19.82
2022-08-26T14:38:57.027Z,19.88
2022-08-26T14:41:25.453Z,19.91
2022-08-26T14:43:57.964Z,20.01
2022-08-26T14:46:29.085Z,20.00
2022-08-26T14:49:01.032Z,19.92
2022-08-26T14:51:29.008Z,19.93
2022-08-26T14:54:14.110Z,19.90
2022-08-26T14:56:45.132Z,19.70
2022-08-26T14:59:13.943Z,19.55
2022-08-26T15:01:40.872Z,19.15
2022-08-26T15:04:07.721Z,19.14
2022-08-26T15:06:35.740Z,19.34
2022-08-26T15:09:02.835Z,19.45
2022-08-26T15:11:29.685Z,19.71
2022-08-26T15:14:02.977Z,19.98
2022-08-26T15:16:30.131Z,20.15
2022-08-26T15:18:57.047Z,20.22
2022-08-26T15:21:24.481Z,20.18
2022-08-26T15:23:52.003Z,20.06
2022-08-26T15:26:23.656Z,19.94
2022-08-26T15:28:51.066Z,20.10
2022-08-26T15:31:17.917Z,20.20
2022-08-26T15:33:47.271Z,20.07
2022-08-26T15:36:14.520Z,20.09
2022-08-26T15:38:42.741Z,20.15
2022-08-26T15:41:10.309Z,20.04
2022-08-26T15:43:38.007Z,20.21
2022-08-26T15:46:04.890Z,20.28
2022-08-26T15:48:32.230Z,20.46
2022-08-26T15:51:01.000Z,20.44
2022-08-26T15:53:31.384Z,20.54
2022-08-26T15:55:59.068Z,20.54
2022-08-26T15:58:27.700Z,20.53
2022-08-26T16:00:57.739Z,20.55
2022-08-26T16:03:45.496Z,20.60
2022-08-26T16:06:22.968Z,20.64
2022-08-26T16:08:50.223Z,20.69
2022-08-26T16:11:19.962Z,20.77
2022-08-26T16:13:47.602Z,20.85
2022-08-26T16:16:15.187Z,20.84
2022-08-26T16:18:42.550Z,20.81
2022-08-26T16:21:36.315Z,20.77
2022-08-26T16:24:05.331Z,20.86
2022-08-26T16:26:34.693Z,20.97
2022-08-26T16:29:03.428Z,21.02
2022-08-26T16:31:30.198Z,20.67
2022-08-26T16:33:56.978Z,20.58
2022-08-26T16:36:23.857Z,20.47
2022-08-26T16:38:56.565Z,20.41
2022-08-26T16:41:25.049Z,20.41
2022-08-26T16:43:52.095Z,20.39
2022-08-26T16:46:19.147Z,20.58
2022-08-26T16:48:46.045Z,20.53
2022-08-26T16:51:16.156Z,20.46
2022-08-26T16:53:44.047Z,20.58
2022-08-26T16:56:17.067Z,20.63
2022-08-26T16:58:44.153Z,20.69
2022-08-26T17:01:11.181Z,20.61
2022-08-26T17:03:38.005Z,20.52
2022-08-26T17:06:05.050Z,20.48
2022-08-26T17:08:31.775Z,20.54
2022-08-26T17:11:01.748Z,20.36
2022-08-26T17:13:34.758Z,20.35
2022-08-26T17:16:01.979Z,20.38
2022-08-26T17:18:31.133Z,20.32
2022-08-26T17:21:02.094Z,20.25
2022-08-26T17:23:29.223Z,20.25
2022-08-26T17:25:55.949Z,20.17
2022-08-26T17:29:12.261Z,20.22
2022-08-26T17:31:37.783Z,20.17
2022-08-26T17:34:04.710Z,20.23
2022-08-26T17:36:31.425Z,20.22
2022-08-26T17:38:58.694Z,20.21
2022-08-26T17:41:26.372Z,20.18
2022-08-26T17:44:33.669Z,20.13
2022-08-26T17:47:00.944Z,20.09
2022-08-26T17:49:28.132Z,20.17
2022-08-26T17:54:45.484Z,20.29
2022-08-26T17:57:12.168Z,20.31
2022-08-26T17:59:41.727Z,20.40
2022-08-26T18:02:08.794Z,20.44
2022-08-26T18:04:35.664Z,20.43
2022-08-26T18:07:02.439Z,20.40
2022-08-26T18:09:31.307Z,20.41
2022-08-26T18:11:58.843Z,20.47
2022-08-26T18:14:26.240Z,20.48
2022-08-26T18:16:53.660Z,20.44
2022-08-26T18:19:20.368Z,20.50
2022-08-26T18:21:47.084Z,20.50
2022-08-26T18:24:14.310Z,20.52
2022-08-26T18:26:48.074Z,20.47
2022-08-26T18:29:15.585Z,20.50
2022-08-26T18:31:42.532Z,20.57
2022-08-26T18:34:12.952Z,20.50
2022-08-26T18:36:42.577Z,20.38
2022-08-26T18:39:10.738Z,20.33
2022-08-26T18:41:48.594Z,20.35
2022-08-26T18:44:18.453Z,20.31
2022-08-26T18:46:45.966Z,20.24
2022-08-26T18:49:15.219Z,20.19
2022-08-26T18:51:42.621Z,20.06
2022-08-26T18:54:09.754Z,20.04
2022-08-26T18:56:38.998Z,19.98
2022-08-26T18:59:07.366Z,19.96
2022-08-26T19:01:35.321Z,19.87
2022-08-26T19:04:04.243Z,19.96
2022-08-26T19:06:33.043Z,19.96
2022-08-26T19:09:00.338Z,20.00
2022-08-26T19:11:31.394Z,19.92
2022-08-26T19:14:00.876Z,19.79
2022-08-26T19:16:28.176Z,19.89
2022-08-26T19:18:55.885Z,19.95
2022-08-26T19:21:23.217Z,19.90
2022-08-26T19:23:50.744Z,19.83
2022-08-26T19:26:18.734Z,19.81
2022-08-26T19:28:45.530Z,19.82
2022-08-26T19:31:12.435Z,19.92
2022-08-26T19:33:41.803Z,19.89
2022-08-26T19:36:14.916Z,19.82
2022-08-26T19:38:42.936Z,19.81
2022-08-26T19:41:15.210Z,19.77
2022-08-26T19:43:42.596Z,19.71
2022-08-26T19:46:17.399Z,19.62
2022-08-26T19:48:45.075Z,19.63
2022-08-26T19:51:13.678Z,19.75
2022-08-26T19:53:40.843Z,19.77
2022-08-26T19:56:08.202Z,19.69
2022-08-26T19:58:35.786Z,19.70
2022-08-26T20:33:08.587Z,19.64
2022-08-26T20:46:18.035Z,19.69
2022-08-26T20:50:45.931Z,19.74
2022-08-26T21:06:15.426Z,19.85
2022-08-26T21:08:44.964Z,19.92
2022-08-26T21:11:23.872Z,20.02
2022-08-26T21:14:16.094Z,20.02
2022-08-26T21:16:43.513Z,19.89
2022-08-26T21:19:13.773Z,19.78
2022-08-26T21:21:41.975Z,19.66
2022-08-26T21:24:09.495Z,19.51
2022-08-26T21:26:45.268Z,19.52
2022-08-26T21:29:13.672Z,19.61
2022-08-26T21:31:49.772Z,19.70
2022-08-26T21:34:47.291Z,19.73
2022-08-26T21:37:31.062Z,19.78
2022-08-26T21:39:59.325Z,19.85
2022-08-26T21:42:40.094Z,19.80
2022-08-26T21:45:10.216Z,19.85
2022-08-26T21:47:37.271Z,19.84
2022-08-26T21:50:26.660Z,19.67
2022-08-26T21:52:59.155Z,19.61
2022-08-26T21:55:36.852Z,19.61
2022-08-26T21:58:18.357Z,19.69
2022-08-26T22:00:54.254Z,19.63
2022-08-26T22:03:30.329Z,19.57
2022-08-26T22:06:23.165Z,19.52
2022-08-26T22:08:56.190Z,19.50
2022-08-26T22:11:58.501Z,19.50
2022-08-26T22:14:30.943Z,19.51
2022-08-26T22:17:16.855Z,19.45
2022-08-26T22:20:24.606Z,19.49
2022-08-26T22:23:10.628Z,19.46
2022-08-26T22:25:56.136Z,19.46
2022-08-26T22:29:00.000Z,19.34
2022-08-26T22:31:37.875Z,19.37
2022-08-26T22:37:38.482Z,19.58
2022-08-26T22:46:44.019Z,19.72
2022-08-26T22:49:54.820Z,19.82
2022-08-26T22:52:39.382Z,19.65
2022-08-26T22:55:36.914Z,19.68
2022-08-26T22:58:08.674Z,19.60
2022-08-26T23:00:47.096Z,19.53
2022-08-26T23:03:24.611Z,19.48
2022-08-26T23:06:33.282Z,19.38
2022-08-26T23:09:36.638Z,19.34
2022-08-26T23:12:57.088Z,19.29
2022-08-26T23:19:10.072Z,19.39
2022-08-26T23:22:00.746Z,19.37
2022-08-26T23:24:47.026Z,19.37
2022-08-26T23:27:14.000Z,19.44
2022-08-26T23:29:40.918Z,19.54
2022-08-26T23:32:16.323Z,19.54
2022-08-26T23:34:56.749Z,19.60
2022-08-26T23:37:24.119Z,19.58
2022-08-26T23:40:33.685Z,19.60
2022-08-26T23:43:07.876Z,19.54
2022-08-26T23:45:40.844Z,19.61
2022-08-26T23:48:24.823Z,19.72
2022-08-26T23:51:29.330Z,19.66
2022-08-26T23:54:26.552Z,19.56
2022-08-26T23:56:53.527Z,19.56
2022-08-26T23:59:30.238Z,19.51
